createdAt,value
2018-03-18T00:01:33.589Z,0.98
2018-03-18T00:04:02.073Z,0.97
2018-03-18T00:06:29.593Z,0.97
2018-03-18T00:08:57.133Z,0.98
2018-03-18T00:11:24.670Z,0.98
2018-03-18T00:13:52.207Z,0.97
2018-03-18T00:16:21.559Z,0.98
2018-03-18T00:18:49.420Z,0.98
2018-03-18T00:21:17.452Z,0.98
2018-03-18T00:23:44.949Z,0.96
2018-03-18T00:26:12.473Z,0.95
2018-03-18T00:28:39.993Z,0.93
2018-03-18T00:31:07.627Z,0.91
2018-03-18T00:33:35.201Z,0.91
2018-03-18T00:36:05.386Z,0.90
2018-03-18T00:38:33.408Z,0.89
2018-03-18T00:41:00.958Z,0.86
2018-03-18T00:43:28.472Z,0.85
2018-03-18T00:45:56.040Z,0.85
2018-03-18T00:48:23.748Z,0.84
2018-03-18T00:50:51.370Z,0.83
2018-03-18T00:53:18.906Z,0.81
2018-03-18T00:55:46.613Z,0.80
2018-03-18T00:58:14.144Z,0.80
2018-03-18T01:00:41.680Z,0.79
2018-03-18T01:03:09.177Z,0.79
2018-03-18T01:05:37.402Z,0.80
2018-03-18T01:08:05.149Z,0.80
2018-03-18T01:10:33.509Z,0.81
2018-03-18T01:13:01.269Z,0.78
2018-03-18T01:15:28.778Z,0.78
2018-03-18T01:17:56.312Z,0.78
2018-03-18T01:20:23.834Z,0.78
2018-03-18T01:22:51.409Z,0.77
2018-03-18T01:25:18.972Z,0.77
2018-03-18T01:27:47.777Z,0.79
2018-03-18T01:30:15.408Z,0.79
2018-03-18T01:32:42.940Z,0.79
2018-03-18T01:35:10.460Z,0.78
2018-03-18T01:37:37.993Z,0.78
2018-03-18T01:40:05.512Z,0.79
2018-03-18T01:42:33.438Z,0.78
2018-03-18T01:45:01.491Z,0.78
2018-03-18T01:47:29.273Z,0.78
2018-03-18T01:49:56.768Z,0.77
2018-03-18T01:52:24.292Z,0.77
2018-03-18T01:54:51.846Z,0.76
2018-03-18T01:57:19.484Z,0.76
2018-03-18T01:59:47.025Z,0.77
2018-03-18T02:02:14.577Z,0.76
2018-03-18T02:04:43.369Z,0.77
2018-03-18T02:07:10.873Z,0.79
2018-03-18T02:09:38.397Z,0.78
2018-03-18T02:12:05.938Z,0.79
2018-03-18T02:14:34.432Z,0.79
2018-03-18T02:17:02.913Z,0.79
2018-03-18T02:19:30.556Z,0.79
2018-03-18T02:21:58.133Z,0.78
2018-03-18T02:24:25.665Z,0.76
2018-03-18T02:26:53.169Z,0.75
2018-03-18T02:29:20.696Z,0.73
2018-03-18T02:31:48.236Z,0.72
2018-03-18T02:34:15.776Z,0.70
2018-03-18T02:36:43.392Z,0.70
2018-03-18T02:39:10.944Z,0.70
2018-03-18T02:41:38.466Z,0.69
2018-03-18T02:44:05.993Z,0.69
2018-03-18T02:46:33.526Z,0.68
2018-03-18T02:49:01.113Z,0.69
2018-03-18T02:51:28.893Z,0.69
2018-03-18T02:53:56.423Z,0.69
2018-03-18T02:56:24.033Z,0.71
2018-03-18T02:58:51.611Z,0.71
2018-03-18T03:01:19.144Z,0.71
2018-03-18T03:03:46.667Z,0.71
2018-03-18T03:06:14.256Z,0.70
2018-03-18T03:08:41.880Z,0.72
2018-03-18T03:11:10.554Z,0.71
2018-03-18T03:13:38.133Z,0.71
2018-03-18T03:16:05.637Z,0.70
2018-03-18T03:18:33.142Z,0.69
2018-03-18T03:21:00.685Z,0.69
2018-03-18T03:23:28.244Z,0.69
2018-03-18T03:25:55.797Z,0.70
2018-03-18T03:28:23.353Z,0.68
2018-03-18T03:30:50.954Z,0.67
2018-03-18T03:33:18.477Z,0.67
2018-03-18T03:35:46.025Z,0.66
2018-03-18T03:38:13.555Z,0.65
2018-03-18T03:40:41.093Z,0.65
2018-03-18T03:43:08.800Z,0.65
2018-03-18T03:45:36.359Z,0.63
2018-03-18T03:48:03.945Z,0.61
2018-03-18T03:50:31.452Z,0.60
2018-03-18T03:52:58.989Z,0.60
2018-03-18T03:55:26.520Z,0.59
2018-03-18T03:57:54.064Z,0.58
2018-03-18T04:00:21.649Z,0.58
2018-03-18T04:02:49.409Z,0.58
2018-03-18T04:05:17.112Z,0.58
2018-03-18T04:07:44.725Z,0.56
2018-03-18T04:10:12.233Z,0.56
2018-03-18T04:12:39.762Z,0.57
2018-03-18T04:15:07.292Z,0.58
2018-03-18T04:17:34.869Z,0.60
2018-03-18T04:20:02.391Z,0.59
2018-03-18T04:22:29.974Z,0.58
2018-03-18T04:24:57.482Z,0.58
2018-03-18T04:27:24.980Z,0.59
2018-03-18T04:29:52.503Z,0.58
2018-03-18T04:32:20.050Z,0.58
2018-03-18T04:34:47.711Z,0.57
2018-03-18T04:37:15.252Z,0.55
2018-03-18T04:39:42.854Z,0.55
2018-03-18T04:42:10.393Z,0.55
2018-03-18T04:44:37.921Z,0.55
2018-03-18T04:47:05.448Z,0.55
2018-03-18T04:49:33.012Z,0.55
2018-03-18T04:52:00.683Z,0.54
2018-03-18T04:54:28.197Z,0.54
2018-03-18T04:56:55.767Z,0.55
2018-03-18T04:59:23.341Z,0.54
2018-03-18T05:01:50.846Z,0.55
2018-03-18T05:04:18.339Z,0.55
2018-03-18T05:06:45.885Z,0.55
2018-03-18T05:09:13.525Z,0.55
2018-03-18T05:11:41.298Z,0.54
2018-03-18T05:14:08.905Z,0.52
2018-03-18T05:16:36.453Z,0.53
2018-03-18T05:19:04.131Z,0.53
2018-03-18T05:21:31.733Z,0.52
2018-03-18T05:23:59.284Z,0.50
2018-03-18T05:26:26.892Z,0.50
2018-03-18T05:28:54.796Z,0.49
2018-03-18T05:31:25.261Z,0.49
2018-03-18T05:33:52.780Z,0.49
2018-03-18T05:36:20.322Z,0.50
2018-03-18T05:38:47.864Z,0.50
2018-03-18T05:41:15.387Z,0.50
2018-03-18T05:43:42.961Z,0.50
2018-03-18T05:46:12.457Z,0.51
2018-03-18T05:48:40.019Z,0.52
2018-03-18T05:51:07.561Z,0.52
2018-03-18T05:53:35.100Z,0.52
2018-03-18T05:56:02.622Z,0.54
2018-03-18T05:58:30.157Z,0.53
2018-03-18T06:00:57.765Z,0.55
2018-03-18T06:03:25.481Z,0.54
2018-03-18T06:05:53.348Z,0.54
2018-03-18T06:08:20.966Z,0.54
2018-03-18T06:10:48.504Z,0.54
2018-03-18T06:13:15.996Z,0.55
2018-03-18T06:15:43.548Z,0.56
2018-03-18T06:18:11.121Z,0.57
2018-03-18T06:20:38.701Z,0.59
2018-03-18T06:23:06.250Z,0.60
2018-03-18T06:25:33.817Z,0.62
2018-03-18T06:28:01.337Z,0.64
2018-03-18T06:30:28.876Z,0.64
2018-03-18T06:32:56.415Z,0.64
2018-03-18T06:35:23.992Z,0.65
2018-03-18T06:37:51.625Z,0.66
2018-03-18T06:40:19.184Z,0.66
2018-03-18T06:42:46.737Z,0.66
2018-03-18T06:45:14.253Z,0.67
2018-03-18T06:47:41.861Z,0.68
2018-03-18T06:50:09.348Z,0.68
2018-03-18T06:52:37.885Z,0.68
2018-03-18T06:55:05.572Z,0.70
2018-03-18T06:57:34.489Z,0.71
2018-03-18T07:00:02.166Z,0.73
2018-03-18T07:02:29.689Z,0.74
2018-03-18T07:04:57.205Z,0.75
2018-03-18T07:07:24.840Z,0.75
2018-03-18T07:09:52.492Z,0.75
2018-03-18T07:12:20.115Z,0.75
2018-03-18T07:14:47.677Z,0.76
2018-03-18T07:17:15.233Z,0.77
2018-03-18T07:19:42.737Z,0.80
2018-03-18T07:22:10.260Z,0.83
2018-03-18T07:24:37.849Z,0.84
2018-03-18T07:27:05.870Z,0.86
2018-03-18T07:29:33.645Z,0.89
2018-03-18T07:32:01.709Z,0.92
2018-03-18T07:34:29.248Z,0.93
2018-03-18T07:36:56.789Z,0.96
2018-03-18T07:39:24.336Z,0.97
2018-03-18T07:41:51.934Z,0.99
2018-03-18T07:44:19.596Z,1.00
2018-03-18T07:46:47.141Z,1.01
2018-03-18T07:49:14.726Z,1.02
2018-03-18T07:51:43.128Z,1.04
2018-03-18T07:54:10.667Z,1.04
2018-03-18T07:56:38.192Z,1.03
2018-03-18T07:59:05.756Z,1.04
2018-03-18T08:01:34.294Z,1.03
2018-03-18T08:04:03.349Z,1.04
2018-03-18T08:06:33.776Z,1.02
2018-03-18T08:09:01.297Z,1.02
2018-03-18T08:11:28.890Z,1.02
2018-03-18T08:13:56.394Z,1.01
2018-03-18T08:16:23.932Z,1.01
2018-03-18T08:18:51.553Z,1.02
2018-03-18T08:21:19.097Z,1.05
2018-03-18T08:23:47.142Z,1.08
2018-03-18T08:26:14.681Z,1.11
2018-03-18T08:28:42.217Z,1.15
2018-03-18T08:31:09.773Z,1.16
2018-03-18T08:33:37.307Z,1.18
2018-03-18T08:36:05.941Z,1.21
2018-03-18T08:41:15.573Z,1.29
2018-03-18T08:43:43.354Z,1.33
2018-03-18T08:46:10.971Z,1.37
2018-03-18T08:48:38.480Z,1.39
2018-03-18T08:51:06.055Z,1.40
2018-03-18T08:53:33.705Z,1.43
2018-03-18T08:56:06.626Z,1.44
2018-03-18T08:58:35.198Z,1.46
2018-03-18T09:01:02.753Z,1.48
2018-03-18T09:03:30.297Z,1.52
2018-03-18T09:05:57.846Z,1.58
2018-03-18T09:08:25.417Z,1.66
2018-03-18T09:10:57.544Z,1.73
2018-03-18T09:13:26.589Z,1.81
2018-03-18T09:15:55.508Z,1.89
2018-03-18T09:18:23.080Z,1.96
2018-03-18T09:20:50.625Z,2.03
2018-03-18T09:23:18.148Z,2.08
2018-03-18T09:25:45.721Z,2.11
2018-03-18T09:28:14.249Z,2.15
2018-03-18T09:36:47.858Z,2.28
2018-03-18T09:39:15.401Z,2.31
2018-03-18T09:41:42.967Z,2.31
2018-03-18T09:52:32.278Z,2.38
2018-03-18T09:54:59.852Z,2.38
2018-03-18T09:57:27.419Z,2.41
2018-03-18T09:59:54.977Z,2.46
2018-03-18T10:02:25.477Z,2.50
2018-03-18T10:07:29.379Z,2.59
2018-03-18T10:09:56.900Z,2.65
2018-03-18T10:12:24.460Z,2.71
2018-03-18T10:14:52.014Z,2.74
2018-03-18T10:17:19.573Z,2.75
2018-03-18T10:27:14.783Z,2.86
2018-03-18T10:29:42.330Z,2.89
2018-03-18T10:32:09.901Z,2.92
2018-03-18T10:34:37.480Z,2.97
2018-03-18T10:43:21.967Z,3.25
2018-03-18T10:45:49.493Z,3.34
2018-03-18T10:48:17.105Z,3.43
2018-03-18T10:50:44.643Z,3.49
2018-03-18T10:53:17.809Z,3.54
2018-03-18T10:58:37.808Z,3.57
2018-03-18T11:03:43.132Z,3.64
2018-03-18T11:06:10.694Z,3.67
2018-03-18T11:08:38.265Z,3.64
2018-03-18T11:11:07.748Z,3.62
2018-03-18T11:19:03.207Z,3.52
2018-03-18T11:21:30.769Z,3.49
2018-03-18T11:23:58.413Z,3.47
2018-03-18T11:26:28.006Z,3.50
2018-03-18T11:28:55.662Z,3.56
2018-03-18T11:31:23.577Z,3.61
2018-03-18T11:33:51.200Z,3.59
2018-03-18T11:36:18.726Z,3.56
2018-03-18T11:38:46.288Z,3.53
2018-03-18T11:41:13.803Z,3.47
2018-03-18T11:43:41.381Z,3.45
2018-03-18T11:46:11.455Z,3.41
2018-03-18T11:48:39.257Z,3.38
2018-03-18T11:51:09.560Z,3.36
2018-03-18T11:53:37.099Z,3.33
2018-03-18T11:56:04.733Z,3.26
2018-03-18T11:58:32.279Z,3.21
2018-03-18T12:00:59.933Z,3.17
2018-03-18T12:03:27.480Z,3.14
2018-03-18T12:05:59.561Z,3.10
2018-03-18T12:11:33.517Z,2.95
2018-03-18T12:14:01.036Z,2.89
2018-03-18T12:16:28.668Z,2.85
2018-03-18T12:18:56.346Z,2.82
2018-03-18T12:24:06.921Z,2.84
2018-03-18T12:26:50.569Z,2.84
2018-03-18T12:29:18.157Z,2.83
2018-03-18T12:31:45.690Z,2.82
2018-03-18T12:34:13.269Z,2.82
2018-03-18T12:45:05.901Z,2.75
2018-03-18T12:47:33.434Z,2.76
2018-03-18T12:50:00.971Z,2.77
2018-03-18T12:52:28.565Z,2.78
2018-03-18T12:55:02.039Z,2.75
2018-03-18T12:57:42.696Z,2.75
2018-03-18T13:00:11.869Z,2.75
2018-03-18T13:02:40.398Z,2.76
2018-03-18T13:05:07.939Z,2.77
2018-03-18T13:07:35.489Z,2.78
2018-03-18T13:10:03.129Z,2.81
2018-03-18T13:12:31.346Z,2.81
2018-03-18T13:20:06.933Z,2.77
2018-03-18T13:22:34.571Z,2.75
2018-03-18T13:25:02.216Z,2.72
2018-03-18T13:27:29.757Z,2.64
2018-03-18T13:29:59.860Z,2.55
2018-03-18T13:32:31.830Z,2.45
2018-03-18T13:34:59.737Z,2.35
2018-03-18T13:37:27.303Z,2.27
2018-03-18T13:39:54.852Z,2.19
2018-03-18T13:42:22.448Z,2.13
2018-03-18T13:47:51.452Z,2.00
2018-03-18T13:50:18.983Z,1.96
2018-03-18T13:52:47.013Z,1.94
2018-03-18T13:55:14.537Z,1.91
2018-03-18T13:57:42.065Z,1.90
2018-03-18T14:00:09.597Z,1.89
2018-03-18T14:02:37.148Z,1.87
2018-03-18T14:05:04.939Z,1.85
2018-03-18T14:07:34.699Z,1.84
2018-03-18T14:10:03.746Z,1.84
2018-03-18T14:12:34.638Z,1.83
2018-03-18T14:15:02.829Z,1.85
2018-03-18T14:17:30.568Z,1.84
2018-03-18T14:19:58.137Z,1.83
2018-03-18T14:27:47.345Z,1.78
2018-03-18T14:30:15.222Z,1.77
2018-03-18T14:32:42.724Z,1.77
2018-03-18T14:35:10.296Z,1.74
2018-03-18T14:37:37.862Z,1.70
2018-03-18T14:40:05.525Z,1.68
2018-03-18T14:45:06.191Z,1.64
2018-03-18T14:47:34.749Z,1.62
2018-03-18T14:50:02.287Z,1.60
2018-03-18T14:52:29.872Z,1.59
2018-03-18T14:54:57.334Z,1.59
2018-03-18T14:57:26.070Z,1.58
2018-03-18T14:59:57.787Z,1.56
2018-03-18T15:02:30.902Z,1.54
2018-03-18T15:07:37.121Z,1.52
2018-03-18T15:10:04.704Z,1.49
2018-03-18T15:12:32.244Z,1.48
2018-03-18T15:15:06.850Z,1.46
2018-03-18T15:17:39.475Z,1.44
2018-03-18T15:20:26.085Z,1.41
2018-03-18T15:23:08.094Z,1.39
2018-03-18T15:25:35.642Z,1.38
2018-03-18T15:28:03.192Z,1.38
2018-03-18T15:30:30.768Z,1.38
2018-03-18T15:41:02.532Z,1.35
2018-03-18T15:43:30.046Z,1.35
2018-03-18T15:45:57.607Z,1.35
2018-03-18T15:54:54.026Z,1.34
2018-03-18T15:57:21.757Z,1.33
2018-03-18T15:59:49.353Z,1.34
2018-03-18T16:02:16.926Z,1.34
2018-03-18T16:04:47.074Z,1.35
2018-03-18T16:13:22.886Z,1.33
2018-03-18T16:15:50.582Z,1.33
2018-03-18T16:18:18.111Z,1.33
2018-03-18T16:20:45.659Z,1.32
2018-03-18T16:29:38.480Z,1.29
2018-03-18T16:32:06.052Z,1.28
2018-03-18T16:34:33.592Z,1.25
2018-03-18T16:37:01.125Z,1.23
2018-03-18T16:39:28.683Z,1.22
2018-03-18T16:41:56.228Z,1.21
2018-03-18T16:44:26.922Z,1.19
2018-03-18T16:46:55.389Z,1.18
2018-03-18T16:49:22.934Z,1.15
2018-03-18T16:51:50.473Z,1.13
2018-03-18T16:54:18.066Z,1.11
2018-03-18T16:56:45.657Z,1.09
2018-03-18T16:59:15.765Z,1.08
2018-03-18T17:01:45.780Z,1.05
2018-03-18T17:04:17.697Z,1.04
2018-03-18T17:06:45.285Z,1.02
2018-03-18T17:09:12.881Z,1.01
2018-03-18T17:11:40.448Z,1.01
2018-03-18T17:14:08.083Z,1.01
2018-03-18T17:16:35.953Z,1.01
2018-03-18T17:19:07.533Z,1.00
2018-03-18T17:21:35.454Z,1.00
2018-03-18T17:24:03.010Z,0.99
2018-03-18T17:26:30.566Z,0.97
2018-03-18T17:29:01.630Z,0.98
2018-03-18T17:40:35.953Z,0.93
2018-03-18T17:43:03.501Z,0.92
2018-03-18T17:45:42.875Z,0.92
2018-03-18T17:57:16.535Z,0.85
2018-03-18T17:59:44.070Z,0.85
2018-03-18T18:02:11.744Z,0.84
2018-03-18T18:04:39.280Z,0.83
2018-03-18T18:09:50.186Z,0.82
2018-03-18T18:15:03.469Z,0.80
2018-03-18T18:17:30.988Z,0.78
2018-03-18T18:19:58.517Z,0.79
2018-03-18T18:22:26.136Z,0.78
2018-03-18T18:24:54.660Z,0.77
2018-03-18T18:27:23.233Z,0.77
2018-03-18T18:29:53.976Z,0.76
2018-03-18T18:32:21.561Z,0.76
2018-03-18T18:34:49.094Z,0.75
2018-03-18T18:37:16.656Z,0.75
2018-03-18T18:39:44.726Z,0.73
2018-03-18T18:42:14.090Z,0.73
2018-03-18T18:44:42.708Z,0.73
2018-03-18T18:47:11.365Z,0.72
2018-03-18T18:49:38.893Z,0.70
2018-03-18T18:52:06.433Z,0.70
2018-03-18T18:54:33.954Z,0.70
2018-03-18T18:57:01.561Z,0.69
2018-03-18T18:59:30.346Z,0.70
2018-03-18T19:02:02.755Z,0.69
2018-03-18T19:04:30.984Z,0.70
2018-03-18T19:06:58.509Z,0.69
2018-03-18T19:09:26.020Z,0.69
2018-03-18T19:11:53.573Z,0.68
2018-03-18T19:14:22.037Z,0.67
2018-03-18T19:16:51.843Z,0.67
2018-03-18T19:19:21.910Z,0.67
2018-03-18T19:21:52.062Z,0.66
2018-03-18T19:24:20.784Z,0.66
2018-03-18T19:26:48.328Z,0.66
2018-03-18T19:29:15.892Z,0.66
2018-03-18T19:31:43.412Z,0.66
2018-03-18T19:34:11.905Z,0.65
2018-03-18T19:42:09.313Z,0.64
2018-03-18T19:44:36.846Z,0.64
2018-03-18T19:47:04.420Z,0.65
2018-03-18T19:49:34.765Z,0.65
2018-03-18T19:52:07.206Z,0.65
2018-03-18T19:54:37.104Z,0.64
2018-03-18T19:57:06.745Z,0.64
2018-03-18T19:59:35.225Z,0.63
2018-03-18T20:02:02.756Z,0.63
2018-03-18T20:04:30.306Z,0.63
2018-03-18T20:06:57.987Z,0.62
2018-03-18T20:09:26.841Z,0.62
2018-03-18T20:11:55.382Z,0.61
2018-03-18T20:14:23.400Z,0.61
2018-03-18T20:16:50.952Z,0.61
2018-03-18T20:19:18.556Z,0.60
2018-03-18T20:21:46.077Z,0.59
2018-03-18T20:24:14.640Z,0.58
2018-03-18T20:26:43.582Z,0.58
2018-03-18T20:29:11.872Z,0.58
2018-03-18T20:31:42.965Z,0.59
2018-03-18T20:34:10.568Z,0.57
2018-03-18T20:36:38.102Z,0.58
2018-03-18T20:39:05.630Z,0.57
2018-03-18T20:41:34.253Z,0.57
2018-03-18T20:44:03.080Z,0.56
2018-03-18T20:46:35.079Z,0.57
2018-03-18T20:49:03.785Z,0.56
2018-03-18T20:51:31.330Z,0.57
2018-03-18T20:53:58.968Z,0.57
2018-03-18T20:56:26.578Z,0.58
2018-03-18T20:58:55.245Z,0.57
2018-03-18T21:01:23.651Z,0.58
2018-03-18T21:03:51.738Z,0.57
2018-03-18T21:06:20.269Z,0.59
2018-03-18T21:08:49.710Z,0.58
2018-03-18T21:11:17.218Z,0.58
2018-03-18T21:13:44.776Z,0.58
2018-03-18T21:16:12.347Z,0.58
2018-03-18T21:18:40.049Z,0.59
2018-03-18T21:21:07.593Z,0.58
2018-03-18T21:23:35.424Z,0.58
2018-03-18T21:26:02.924Z,0.60
2018-03-18T21:28:30.497Z,0.59
2018-03-18T21:30:58.016Z,0.60
2018-03-18T21:33:26.073Z,0.60
2018-03-18T21:35:54.771Z,0.60
2018-03-18T21:38:23.306Z,0.59
2018-03-18T21:40:51.829Z,0.59
2018-03-18T21:43:19.342Z,0.60
2018-03-18T21:45:46.890Z,0.61
2018-03-18T21:48:14.429Z,0.61
2018-03-18T21:50:43.473Z,0.61
2018-03-18T21:53:12.118Z,0.62
2018-03-18T21:55:42.092Z,0.62
2018-03-18T21:58:10.170Z,0.64
2018-03-18T22:00:37.744Z,0.64
2018-03-18T22:03:05.270Z,0.65
2018-03-18T22:05:32.896Z,0.65
2018-03-18T22:08:06.019Z,0.65
2018-03-18T22:10:35.957Z,0.65
2018-03-18T22:13:06.187Z,0.65
2018-03-18T22:15:38.441Z,0.66
2018-03-18T22:18:06.093Z,0.66
2018-03-18T22:20:33.733Z,0.67
2018-03-18T22:23:01.266Z,0.66
2018-03-18T22:25:30.898Z,0.66
2018-03-18T22:28:02.505Z,0.66
2018-03-18T22:30:30.969Z,0.66
2018-03-18T22:32:59.663Z,0.66
2018-03-18T22:35:27.178Z,0.65
2018-03-18T22:37:54.722Z,0.65
2018-03-18T22:40:22.265Z,0.64
2018-03-18T22:42:52.656Z,0.63
2018-03-18T22:45:22.382Z,0.63
2018-03-18T22:47:50.833Z,0.63
2018-03-18T22:50:22.778Z,0.63
2018-03-18T22:52:50.306Z,0.62
2018-03-18T22:55:17.894Z,0.61
2018-03-18T22:57:45.416Z,0.61
2018-03-18T23:05:22.303Z,0.57
2018-03-18T23:07:52.705Z,0.55
2018-03-18T23:10:20.226Z,0.53
2018-03-18T23:12:47.761Z,0.51
2018-03-18T23:15:15.310Z,0.48
2018-03-18T23:17:43.873Z,0.47
2018-03-18T23:20:11.977Z,0.46
2018-03-18T23:22:39.557Z,0.46
2018-03-18T23:25:07.112Z,0.44
2018-03-18T23:27:34.702Z,0.44
2018-03-18T23:30:02.249Z,0.45
2018-03-18T23:32:29.772Z,0.45
2018-03-18T23:34:59.799Z,0.45
2018-03-18T23:40:03.677Z,0.45
2018-03-18T23:42:31.238Z,0.46
2018-03-18T23:44:58.757Z,0.47
2018-03-18T23:47:26.304Z,0.47
2018-03-18T23:49:53.851Z,0.48
2018-03-18T23:52:22.912Z,0.48
2018-03-18T23:54:51.419Z,0.48
2018-03-18T23:57:22.983Z,0.49
2018-03-18T23:59:50.526Z,0.49
